createdAt,value
2018-11-02T00:02:23.150Z,92.61
2018-11-02T00:04:52.976Z,92.24
2018-11-02T00:07:22.768Z,92.17
2018-11-02T00:09:52.630Z,92.56
2018-11-02T00:12:22.595Z,93.08
2018-11-02T00:14:52.295Z,92.93
2018-11-02T00:17:22.058Z,93.00
2018-11-02T00:19:51.890Z,93.42
2018-11-02T00:22:21.820Z,93.39
2018-11-02T00:24:51.661Z,92.92
2018-11-02T00:27:21.531Z,92.82
2018-11-02T00:29:51.451Z,92.33
2018-11-02T00:32:21.523Z,92.42
2018-11-02T00:34:51.162Z,92.39
2018-11-02T00:37:21.108Z,92.10
2018-11-02T00:39:50.853Z,92.36
2018-11-02T00:42:20.657Z,92.92
2018-11-02T00:44:50.515Z,92.93
2018-11-02T00:47:20.862Z,93.73
2018-11-02T00:49:50.535Z,93.93
2018-11-02T00:52:22.200Z,93.50
2018-11-02T00:54:52.267Z,94.10
2018-11-02T00:57:22.877Z,93.89
2018-11-02T00:59:52.777Z,94.05
2018-11-02T01:02:23.454Z,93.97
2018-11-02T01:04:53.444Z,94.06
2018-11-02T01:07:24.477Z,94.05
2018-11-02T01:09:54.252Z,93.84
2018-11-02T01:12:24.655Z,94.43
2018-11-02T01:14:54.720Z,94.17
2018-11-02T01:17:24.621Z,94.12
2018-11-02T01:19:54.699Z,94.13
2018-11-02T01:22:24.524Z,94.31
2018-11-02T01:24:54.314Z,94.12
2018-11-02T01:27:24.110Z,94.21
2018-11-02T01:29:54.039Z,94.42
2018-11-02T01:32:23.805Z,94.36
2018-11-02T01:34:53.859Z,94.16
2018-11-02T01:37:23.713Z,94.09
2018-11-02T01:39:53.774Z,94.36
2018-11-02T01:42:23.675Z,94.48
2018-11-02T01:44:53.578Z,94.89
2018-11-02T01:47:23.365Z,94.80
2018-11-02T01:49:53.173Z,94.16
2018-11-02T01:52:23.156Z,94.57
2018-11-02T01:54:52.958Z,94.36
2018-11-02T01:57:22.743Z,94.90
2018-11-02T01:59:52.761Z,94.94
2018-11-02T02:02:22.791Z,94.30
2018-11-02T02:04:52.611Z,94.72
2018-11-02T02:07:22.369Z,94.99
2018-11-02T02:09:52.223Z,94.87
2018-11-02T02:12:22.227Z,94.50
2018-11-02T02:14:51.977Z,94.23
2018-11-02T02:17:21.810Z,94.91
2018-11-02T02:19:51.683Z,94.47
2018-11-02T02:22:21.798Z,94.56
2018-11-02T02:24:51.969Z,94.45
2018-11-02T02:27:21.741Z,94.96
2018-11-02T02:29:51.801Z,94.94
2018-11-02T02:32:21.710Z,94.64
2018-11-02T02:34:51.699Z,94.27
2018-11-02T02:37:21.785Z,93.65
2018-11-02T02:39:51.693Z,93.99
2018-11-02T02:42:21.439Z,93.62
2018-11-02T02:44:51.331Z,93.72
2018-11-02T02:47:21.117Z,94.00
2018-11-02T02:49:50.932Z,94.04
2018-11-02T02:52:20.902Z,93.82
2018-11-02T02:54:50.697Z,94.43
2018-11-02T02:57:20.456Z,94.39
2018-11-02T02:59:50.300Z,94.48
2018-11-02T03:02:20.237Z,94.32
2018-11-02T03:04:50.354Z,94.33
2018-11-02T03:07:20.182Z,94.71
2018-11-02T03:09:50.272Z,94.60
2018-11-02T03:12:20.380Z,94.28
2018-11-02T03:14:50.244Z,94.28
2018-11-02T03:17:20.102Z,94.25
2018-11-02T03:19:50.304Z,94.52
2018-11-02T03:22:20.073Z,94.31
2018-11-02T03:24:49.875Z,94.46
2018-11-02T03:27:19.701Z,93.97
2018-11-02T03:29:49.569Z,94.13
2018-11-02T03:32:19.304Z,94.10
2018-11-02T03:34:49.197Z,94.38
2018-11-02T03:37:18.918Z,94.39
2018-11-02T03:39:48.937Z,94.59
2018-11-02T03:42:18.755Z,94.11
2018-11-02T03:44:48.763Z,94.25
2018-11-02T03:47:18.519Z,94.16
2018-11-02T03:49:48.398Z,94.31
2018-11-02T03:52:18.071Z,94.10
2018-11-02T03:54:48.263Z,94.46
2018-11-02T03:57:18.190Z,94.63
2018-11-02T03:59:48.253Z,94.12
2018-11-02T04:02:18.029Z,94.37
2018-11-02T04:04:47.819Z,94.40
2018-11-02T04:07:17.644Z,94.80
2018-11-02T04:09:47.754Z,94.31
2018-11-02T04:12:17.471Z,94.25
2018-11-02T04:14:47.509Z,94.78
2018-11-02T04:17:17.572Z,94.65
2018-11-02T04:19:47.377Z,94.37
2018-11-02T04:22:18.355Z,94.06
2018-11-02T04:24:50.834Z,94.60
2018-11-02T04:30:00.778Z,94.36
2018-11-02T04:32:30.580Z,94.51
2018-11-02T04:35:00.310Z,94.15
2018-11-02T04:37:29.963Z,94.01
2018-11-02T04:40:01.121Z,93.93
2018-11-02T04:42:30.831Z,93.89
2018-11-02T04:45:00.653Z,93.90
2018-11-02T04:47:30.571Z,93.99
2018-11-02T04:50:00.373Z,93.84
2018-11-02T04:52:30.080Z,93.64
2018-11-02T04:54:59.999Z,93.88
2018-11-02T04:57:29.802Z,93.83
2018-11-02T04:59:59.522Z,93.89
2018-11-02T05:02:29.336Z,93.92
2018-11-02T05:04:59.206Z,94.29
2018-11-02T05:07:29.396Z,94.09
2018-11-02T05:09:59.221Z,94.37
2018-11-02T05:12:28.995Z,94.50
2018-11-02T05:14:59.037Z,94.12
2018-11-02T05:17:28.845Z,94.66
2018-11-02T05:19:58.653Z,94.59
2018-11-02T05:22:28.688Z,94.44
2018-11-02T05:24:59.394Z,94.67
2018-11-02T05:27:29.078Z,94.55
2018-11-02T05:29:58.954Z,94.45
2018-11-02T05:32:28.782Z,94.50
2018-11-02T05:34:58.599Z,94.66
2018-11-02T05:37:28.475Z,94.61
2018-11-02T05:39:58.382Z,94.63
2018-11-02T05:42:28.325Z,94.74
2018-11-02T05:44:58.116Z,94.64
2018-11-02T05:47:28.021Z,94.96
2018-11-02T05:49:57.734Z,94.55
2018-11-02T05:52:27.634Z,94.66
2018-11-02T05:54:57.682Z,94.66
2018-11-02T05:57:27.519Z,94.34
2018-11-02T05:59:57.513Z,94.76
2018-11-02T06:02:27.354Z,94.83
2018-11-02T06:04:58.174Z,94.76
2018-11-02T06:07:27.794Z,95.03
2018-11-02T06:09:59.815Z,94.62
2018-11-02T06:12:30.097Z,94.68
2018-11-02T06:15:03.035Z,94.85
2018-11-02T06:17:32.938Z,94.79
2018-11-02T06:20:03.321Z,94.77
2018-11-02T06:22:47.157Z,94.83
2018-11-02T06:25:18.085Z,94.81
2018-11-02T06:27:48.318Z,94.79
2018-11-02T06:30:26.048Z,95.19
2018-11-02T06:32:56.400Z,94.77
2018-11-02T06:38:09.395Z,94.43
2018-11-02T06:40:39.476Z,94.63
2018-11-02T06:43:10.405Z,95.01
2018-11-02T06:45:40.398Z,95.38
2018-11-02T06:48:10.337Z,95.32
2018-11-02T06:50:40.268Z,94.76
2018-11-02T06:53:10.003Z,94.74
2018-11-02T06:55:40.035Z,94.67
2018-11-02T06:58:09.898Z,94.92
2018-11-02T07:00:39.859Z,94.57
2018-11-02T07:03:09.934Z,94.40
2018-11-02T07:05:41.837Z,95.27
2018-11-02T07:08:11.831Z,94.86
2018-11-02T07:10:41.893Z,95.05
2018-11-02T07:13:11.894Z,94.98
2018-11-02T07:15:41.974Z,95.20
2018-11-02T07:18:11.915Z,95.28
2018-11-02T07:20:41.874Z,93.85
2018-11-02T07:23:11.714Z,94.33
2018-11-02T07:25:41.634Z,94.75
2018-11-02T07:28:11.483Z,95.18
2018-11-02T07:30:41.421Z,94.42
2018-11-02T07:33:11.314Z,94.78
2018-11-02T07:35:41.594Z,94.90
2018-11-02T07:38:11.453Z,94.55
2018-11-02T07:40:42.254Z,95.03
2018-11-02T07:43:12.134Z,93.70
2018-11-02T07:45:42.372Z,93.80
2018-11-02T07:48:12.553Z,94.23
2018-11-02T07:50:42.577Z,93.77
2018-11-02T07:53:12.493Z,93.39
2018-11-02T07:55:42.694Z,92.87
2018-11-02T07:58:12.633Z,92.71
2018-11-02T08:00:43.195Z,93.12
2018-11-02T08:03:13.345Z,90.74
2018-11-02T08:05:43.316Z,91.19
2018-11-02T08:08:13.409Z,88.61
2018-11-02T08:10:43.335Z,90.57
2018-11-02T08:13:13.133Z,90.83
2018-11-02T08:15:43.152Z,90.31
2018-11-02T08:18:12.991Z,89.18
2018-11-02T08:20:42.991Z,90.45
2018-11-02T08:23:12.773Z,90.91
2018-11-02T08:25:42.899Z,88.19
2018-11-02T08:28:12.613Z,89.21
2018-11-02T08:30:42.553Z,89.90
2018-11-02T08:33:12.445Z,86.93
2018-11-02T08:35:42.373Z,85.62
2018-11-02T08:38:12.322Z,85.62
2018-11-02T08:40:42.313Z,87.43
2018-11-02T08:43:13.293Z,88.92
2018-11-02T08:45:43.493Z,88.77
2018-11-02T08:48:13.427Z,87.62
2018-11-02T08:50:43.482Z,83.39
2018-11-02T08:53:13.193Z,84.18
2018-11-02T08:55:43.553Z,84.32
2018-11-02T08:58:14.062Z,83.79
2018-11-02T09:00:44.155Z,83.18
2018-11-02T09:03:14.854Z,80.52
2018-11-02T09:05:45.119Z,82.28
2018-11-02T09:08:15.710Z,79.63
2018-11-02T09:10:46.859Z,78.81
2018-11-02T09:13:16.932Z,78.27
2018-11-02T09:15:47.630Z,77.54
2018-11-02T09:18:17.560Z,77.70
2018-11-02T09:20:47.559Z,77.89
2018-11-02T09:23:17.511Z,78.43
2018-11-02T09:25:48.611Z,78.06
2018-11-02T09:28:19.310Z,78.47
2018-11-02T09:30:49.711Z,77.45
2018-11-02T09:33:19.872Z,73.49
2018-11-02T09:35:50.546Z,71.40
2018-11-02T09:38:20.925Z,72.78
2018-11-02T09:40:58.913Z,72.86
2018-11-02T09:46:10.346Z,73.12
2018-11-02T09:48:43.632Z,73.23
2018-11-02T09:51:15.797Z,73.81
2018-11-02T09:53:47.957Z,74.18
2018-11-02T09:56:18.638Z,72.21
2018-11-02T09:58:51.896Z,71.62
2018-11-02T10:01:22.485Z,71.80
2018-11-02T10:03:53.079Z,70.62
2018-11-02T10:06:25.201Z,72.39
2018-11-02T10:09:01.220Z,71.46
2018-11-02T10:11:32.656Z,69.80
2018-11-02T10:14:03.176Z,70.64
2018-11-02T10:16:33.726Z,70.05
2018-11-02T10:21:44.856Z,66.62
2018-11-02T10:24:14.936Z,69.36
2018-11-02T10:26:45.134Z,67.81
2018-11-02T10:29:15.308Z,69.58
2018-11-02T10:31:45.764Z,67.36
2018-11-02T10:34:16.006Z,65.92
2018-11-02T10:36:46.577Z,67.38
2018-11-02T10:39:17.078Z,67.50
2018-11-02T10:41:58.173Z,68.40
2018-11-02T10:44:50.306Z,68.53
2018-11-02T10:50:46.101Z,68.75
2018-11-02T10:53:16.541Z,69.93
2018-11-02T10:55:46.921Z,68.92
2018-11-02T11:11:11.519Z,69.28
2018-11-02T11:27:34.423Z,65.77
2018-11-02T11:30:06.550Z,64.88
2018-11-02T11:32:39.986Z,67.11
2018-11-02T11:35:17.612Z,65.42
2018-11-02T11:37:48.580Z,67.65
2018-11-02T11:43:13.793Z,65.43
2018-11-02T11:45:45.534Z,65.54
2018-11-02T11:48:16.173Z,65.74
2018-11-02T11:50:52.277Z,64.44
2018-11-02T11:53:25.177Z,65.11
2018-11-02T11:55:56.381Z,66.20
2018-11-02T11:58:32.774Z,65.53
2018-11-02T12:01:03.668Z,64.19
2018-11-02T12:03:33.832Z,64.92
2018-11-02T12:08:42.373Z,64.47
2018-11-02T12:11:13.139Z,63.83
2018-11-02T12:13:44.060Z,64.66
2018-11-02T12:16:14.353Z,65.33
2018-11-02T12:18:45.013Z,66.23
2018-11-02T12:21:15.455Z,66.09
2018-11-02T12:23:58.836Z,67.07
2018-11-02T12:26:32.683Z,66.59
2018-11-02T12:29:13.374Z,66.96
2018-11-02T12:31:44.234Z,66.23
2018-11-02T12:34:18.358Z,67.03
2018-11-02T12:37:02.635Z,67.35
2018-11-02T12:39:42.541Z,70.29
2018-11-02T12:45:17.912Z,72.90
2018-11-02T12:54:11.291Z,72.18
2018-11-02T12:59:45.852Z,74.00
2018-11-02T13:02:26.241Z,76.62
2018-11-02T13:04:58.341Z,77.47
2018-11-02T13:07:32.574Z,80.13
2018-11-02T13:10:04.619Z,80.93
2018-11-02T13:12:35.371Z,81.54
2018-11-02T13:15:07.079Z,83.51
2018-11-02T13:17:37.805Z,84.03
2018-11-02T13:20:09.746Z,84.33
2018-11-02T13:22:41.430Z,85.43
2018-11-02T13:25:13.772Z,85.63
2018-11-02T13:27:47.703Z,86.34
2018-11-02T13:30:18.393Z,87.57
2018-11-02T13:52:56.989Z,87.44
2018-11-02T14:10:01.682Z,89.20
2018-11-02T14:16:16.094Z,89.34
2018-11-02T14:18:57.718Z,89.60
2018-11-02T14:21:28.993Z,90.00
2018-11-02T14:23:59.831Z,90.78
2018-11-02T14:26:30.374Z,90.25
2018-11-02T14:29:10.932Z,90.42
2018-11-02T14:31:43.151Z,90.43
2018-11-02T14:34:17.251Z,90.58
2018-11-02T14:40:14.599Z,89.91
2018-11-02T14:42:48.452Z,90.89
2018-11-02T14:45:26.194Z,90.60
2018-11-02T14:47:59.553Z,91.38
2018-11-02T14:50:50.016Z,91.00
2018-11-02T15:04:21.351Z,91.40
2018-11-02T15:07:03.830Z,91.66
2018-11-02T15:09:35.359Z,91.04
2018-11-02T15:12:10.830Z,92.01
2018-11-02T15:14:51.037Z,91.34
2018-11-02T15:17:32.311Z,91.94
2018-11-02T15:20:24.010Z,91.94
2018-11-02T15:22:54.570Z,92.14
2018-11-02T15:25:26.979Z,92.59
2018-11-02T15:28:00.791Z,92.84
2018-11-02T16:13:50.690Z,92.65
2018-11-02T16:32:24.570Z,93.01
2018-11-02T16:34:55.757Z,93.24
2018-11-02T16:37:29.397Z,92.80
2018-11-02T16:40:01.774Z,93.31
2018-11-02T16:42:32.437Z,92.72
2018-11-02T16:45:04.338Z,93.53
2018-11-02T16:47:34.696Z,92.97
2018-11-02T16:50:16.293Z,93.64
2018-11-02T16:52:49.047Z,93.92
2018-11-02T16:55:20.759Z,93.04
2018-11-02T16:57:54.560Z,93.98
2018-11-02T17:13:31.095Z,93.31
2018-11-02T17:22:59.671Z,93.15
2018-11-02T17:46:41.651Z,94.16
2018-11-02T17:49:20.321Z,93.94
2018-11-02T18:17:11.654Z,93.54
2018-11-02T18:23:30.634Z,94.05
2018-11-02T18:26:02.829Z,94.20
2018-11-02T18:28:34.546Z,94.29
2018-11-02T18:31:05.247Z,94.23
2018-11-02T18:33:37.169Z,93.94
2018-11-02T18:36:09.489Z,93.93
2018-11-02T18:56:54.110Z,94.17
2018-11-02T18:59:52.332Z,94.20
2018-11-02T19:12:07.693Z,94.61
2018-11-02T19:14:55.800Z,94.77
2018-11-02T19:43:51.871Z,94.54
2018-11-02T19:46:27.111Z,95.13
2018-11-02T19:48:58.812Z,94.61
2018-11-02T19:51:30.279Z,94.80
2018-11-02T19:54:00.710Z,94.73
2018-11-02T19:56:31.230Z,94.27
2018-11-02T19:59:02.079Z,94.32
2018-11-02T20:01:32.630Z,95.11
2018-11-02T20:04:03.822Z,94.24
2018-11-02T20:06:34.990Z,94.69
2018-11-02T20:09:05.537Z,94.88
2018-11-02T20:11:36.271Z,94.87
2018-11-02T20:14:06.874Z,94.68
2018-11-02T20:16:37.678Z,95.23
2018-11-02T20:19:14.695Z,94.96
2018-11-02T20:21:49.812Z,95.20
2018-11-02T20:24:21.549Z,94.87
2018-11-02T20:26:57.433Z,94.65
2018-11-02T20:29:28.017Z,94.53
2018-11-02T20:31:59.161Z,94.75
2018-11-02T20:34:30.517Z,95.26
2018-11-02T20:37:01.718Z,94.38
2018-11-02T20:39:32.200Z,95.23
2018-11-02T20:42:02.812Z,95.00
2018-11-02T20:44:33.268Z,95.31
2018-11-02T20:47:03.969Z,94.89
2018-11-02T20:49:36.387Z,94.35
2018-11-02T20:52:07.794Z,94.69
2018-11-02T20:54:38.202Z,94.90
2018-11-02T20:57:09.375Z,94.99
2018-11-02T20:59:39.741Z,94.31
2018-11-02T21:02:10.562Z,94.96
2018-11-02T21:04:41.611Z,94.93
2018-11-02T21:07:12.118Z,94.92
2018-11-02T21:09:42.447Z,94.67
2018-11-02T21:12:12.668Z,94.81
2018-11-02T21:14:43.010Z,94.89
2018-11-02T21:17:14.523Z,95.29
2018-11-02T21:19:44.662Z,94.75
2018-11-02T21:22:15.073Z,95.28
2018-11-02T21:24:45.592Z,94.17
2018-11-02T21:27:15.741Z,94.84
2018-11-02T21:29:46.400Z,95.27
2018-11-02T21:32:17.321Z,94.61
2018-11-02T21:34:47.635Z,94.36
2018-11-02T21:37:17.960Z,94.85
2018-11-02T21:39:48.006Z,94.57
2018-11-02T21:42:19.528Z,95.11
2018-11-02T21:44:49.903Z,94.80
2018-11-02T21:47:20.240Z,94.92
2018-11-02T21:49:50.336Z,95.44
2018-11-02T21:52:21.564Z,94.44
2018-11-02T21:54:51.668Z,94.67
2018-11-02T21:57:21.952Z,94.56
2018-11-02T21:59:52.206Z,94.87
2018-11-02T22:02:22.705Z,95.09
2018-11-02T22:04:53.257Z,94.68
2018-11-02T22:07:23.516Z,94.99
2018-11-02T22:09:54.120Z,94.96
2018-11-02T22:12:24.340Z,95.53
2018-11-02T22:14:54.666Z,95.10
2018-11-02T22:17:25.086Z,95.10
2018-11-02T22:19:55.316Z,95.15
2018-11-02T22:22:25.830Z,95.30
2018-11-02T22:24:56.108Z,94.81
2018-11-02T22:27:26.471Z,95.36
2018-11-02T22:29:56.666Z,95.08
2018-11-02T22:32:26.884Z,95.29
2018-11-02T22:34:57.391Z,95.35
2018-11-02T22:37:27.696Z,94.68
2018-11-02T22:39:58.100Z,94.92
2018-11-02T22:42:28.142Z,94.77
2018-11-02T22:44:58.427Z,94.70
2018-11-02T22:47:28.636Z,95.53
2018-11-02T22:49:59.710Z,94.75
2018-11-02T22:52:30.738Z,95.26
2018-11-02T22:55:01.548Z,95.59
2018-11-02T22:57:31.716Z,95.08
2018-11-02T23:00:02.191Z,94.93
2018-11-02T23:02:32.814Z,95.26
2018-11-02T23:05:02.960Z,94.70
2018-11-02T23:07:33.131Z,94.67
2018-11-02T23:10:03.758Z,94.64
2018-11-02T23:12:34.188Z,95.27
2018-11-02T23:15:04.514Z,94.67
2018-11-02T23:17:34.707Z,94.69
2018-11-02T23:20:05.000Z,95.15
2018-11-02T23:22:35.078Z,94.76
2018-11-02T23:25:06.018Z,94.73
2018-11-02T23:27:36.212Z,95.03
2018-11-02T23:30:07.720Z,94.93
2018-11-02T23:32:37.964Z,95.26
2018-11-02T23:35:10.315Z,94.55
2018-11-02T23:37:40.603Z,95.30
2018-11-02T23:40:12.225Z,95.71
2018-11-02T23:42:42.677Z,95.58
2018-11-02T23:45:13.169Z,95.64
2018-11-02T23:47:48.405Z,95.30
2018-11-02T23:50:18.816Z,94.79
2018-11-02T23:52:49.381Z,94.84
2018-11-02T23:55:19.332Z,95.31
2018-11-02T23:57:49.740Z,95.08
